Navin Harrier — V7LK4 — position and weather

sailwx.info

Track history (hours):
 
Tides and Currents Weather Stations Pressure Air Temp Water Temp Dewpoint Dewpoint Depression Visibility Wind Speed Wind Dir Waves Ship Positions

Navin Harrier

Last reported at 2018-Aug-14 23:30 UTC. Time now 2018-Aug-14 23:43 UTC.
Position N 57°45' E 010°49'.

Length 113 m; draft 7.4 m.

Type: Cargo ship. MMSI: 538007989.

Date/timePositionNaut miles runAvg speedWind from/ knotsBaromVisibWave heightAir tempDewpointWater temp
2018-Aug-14 23:30N 57°45' E 010°49'510.0
2018-Aug-14 23:00N 57°47' E 010°40'510.7
2018-Aug-14 22:30N 57°47' E 010°30'510.3
2018-Aug-14 21:59N 57°46' E 010°20'510.1
2018-Aug-14 21:28N 57°44' E 010°11'294 9.8
2018-Aug-13 15:21N 53°48' E 004°57'3 9.6
2018-Aug-13 15:00N 53°45' E 004°55'5 9.8
2018-Aug-13 14:30N 53°41' E 004°53'5 9.5
2018-Aug-13 14:00N 53°36' E 004°50'5 9.4
2018-Aug-13 13:30N 53°32' E 004°47'6 9.4
2018-Aug-13 12:50N 53°26' E 004°43'3 9.4
2018-Aug-13 12:30N 53°23' E 004°42'5 9.2
2018-Aug-13 12:00N 53°19' E 004°39'5 9.2
2018-Aug-13 11:28N 53°14' E 004°36'4 9.0
2018-Aug-13 10:59N 53°10' E 004°33'4 8.9
2018-Aug-13 10:30N 53°07' E 004°29'4 8.9
2018-Aug-13 10:00N 53°03' E 004°25'5 9.1
2018-Aug-13 09:30N 52°59' E 004°21'5 9.0
2018-Aug-13 09:00N 52°55' E 004°18'5 9.3
2018-Aug-13 08:30N 52°51' E 004°15'5 9.3
2018-Aug-13 07:58N 52°46' E 004°10'4 9.6
2018-Aug-13 07:30N 52°43' E 004°05'510.1
2018-Aug-13 06:59N 52°39' E 003°59'510.3
2018-Aug-13 06:29N 52°36' E 003°53'510.6
2018-Aug-13 06:00N 52°32' E 003°47'510.7
2018-Aug-13 05:30N 52°29' E 003°41'510.8
2018-Aug-13 05:00N 52°25' E 003°35'611.0
2018-Aug-13 04:30N 52°21' E 003°28'611.3
2018-Aug-13 04:00N 52°17' E 003°22'611.4
2018-Aug-13 03:30N 52°13' E 003°15'3311.4
2018-Aug-13 00:34N 51°47' E 002°40'110.2
2018-Aug-13 00:28N 51°47' E 002°39'510.2
2018-Aug-13 00:01N 51°43' E 002°34'5 9.7
2018-Aug-12 23:30N 51°39' E 002°29'5 9.1
2018-Aug-12 22:59N 51°36' E 002°24'4 8.6
2018-Aug-12 22:30N 51°32' E 002°20'4 7.9
2018-Aug-12 22:00N 51°29' E 002°16'4 7.9
2018-Aug-12 21:30N 51°26' E 002°13'4 7.7
2018-Aug-12 21:00N 51°22' E 002°10'4 7.5
2018-Aug-12 20:30N 51°19' E 002°08'4 7.7
2018-Aug-12 20:00N 51°15' E 002°05'4 7.3
2018-Aug-12 19:29N 51°13' E 002°01'4 8.1
2018-Aug-12 19:00N 51°10' E 001°56'4 8.2
2018-Aug-12 18:28N 51°08' E 001°50'4 8.2
2018-Aug-12 18:00N 51°05' E 001°46'4 8.7
2018-Aug-12 17:30N 51°02' E 001°41'5 9.2
2018-Aug-12 17:00N 50°59' E 001°36'5 9.7
2018-Aug-12 16:30N 50°55' E 001°31'610.4
2018-Aug-12 15:54N 50°50' E 001°26'410.5
2018-Aug-12 15:30N 50°46' E 001°24'10 9.9
2018-Aug-12 14:30N 50°37' E 001°15'4210.2
2018-Aug-12 10:24N 50°20' E 000°15'512.0
2018-Aug-12 10:00N 50°18' E 000°08'612.3
2018-Aug-12 09:30N 50°16' W 000°01'612.7
2018-Aug-12 09:00N 50°14' W 000°10'712.7
2018-Aug-12 08:30N 50°11' W 000°19'612.6
2018-Aug-12 08:00N 50°08' W 000°28'612.4
2018-Aug-12 07:30N 50°05' W 000°36'612.1
2018-Aug-12 07:00N 50°03' W 000°45'611.4
2018-Aug-12 06:30N 50°01' W 000°53'610.9
2018-Aug-12 06:00N 49°58' W 001°01'510.1
2018-Aug-12 05:30N 49°56' W 001°08'5 9.2
2018-Aug-12 04:55N 49°54' W 001°16'4 8.4
2018-Aug-12 04:30N 49°53' W 001°21'4 7.3
2018-Aug-12 03:57N 49°51' W 001°26'3 6.5
2018-Aug-12 03:30N 49°50' W 001°31'3 6.5
2018-Aug-12 03:00N 49°47' W 001°33'3 6.3
2018-Aug-12 02:30N 49°45' W 001°36'3 5.1
2018-Aug-12 01:57N 49°44' W 001°41'11 1.6
2018-Aug-11 19:16N 49°49' W 001°55'130 9.0
2018-Aug-11 04:44N 48°59' W 004°60'311.6
2018-Aug-11 04:30N 48°58' W 005°04'611.8
2018-Aug-11 04:00N 48°55' W 005°12'611.6
2018-Aug-11 03:30N 48°52' W 005°19'911.5
2018-Aug-11 02:44N 48°48' W 005°31'311.6
2018-Aug-11 02:27N 48°46' W 005°35'  
2018-Aug-08 07:31N 39°47' W 009°42'0 9.0
2018-Aug-08 07:30N 39°47' W 009°43'5 9.0
2018-Aug-08 06:54N 39°42' W 009°45'5 9.1
2018-Aug-08 06:19N 39°37' W 009°48'3 8.8
2018-Aug-08 05:57N 39°34' W 009°49'5 8.6
2018-Aug-08 05:25N 39°29' W 009°50'4 8.7
2018-Aug-08 04:55N 39°25' W 009°50'4 8.4
2018-Aug-08 04:29N 39°21' W 009°50'4 8.1
2018-Aug-08 04:00N 39°17' W 009°50'4 8.2
2018-Aug-08 03:30N 39°13' W 009°50'4 8.1
2018-Aug-08 03:00N 39°09' W 009°50'4 8.3
2018-Aug-08 02:30N 39°05' W 009°50'4 8.2
2018-Aug-08 02:00N 39°01' W 009°51'4 8.1
2018-Aug-08 01:30N 38°57' W 009°51'4 8.0
2018-Aug-08 01:00N 38°53' W 009°51'4 8.0
2018-Aug-08 00:30N 38°49' W 009°51'4 7.7
2018-Aug-08 00:00N 38°45' W 009°51'4 7.8
2018-Aug-07 23:30N 38°41' W 009°50'4 8.0
2018-Aug-07 23:00N 38°37' W 009°49'4 8.0
2018-Aug-07 22:30N 38°33' W 009°48'4 7.9
2018-Aug-07 22:00N 38°29' W 009°46'4 7.8
2018-Aug-07 21:30N 38°26' W 009°45'4 7.5
2018-Aug-07 20:57N 38°22' W 009°44'4 7.7
2018-Aug-07 20:26N 38°18' W 009°43'3 7.5
2018-Aug-07 20:00N 38°15' W 009°42'4 7.3
2018-Aug-07 19:30N 38°11' W 009°41'3 6.9
2018-Aug-07 19:00N 38°08' W 009°40'3 6.6
2018-Aug-07 18:30N 38°05' W 009°39'3 6.5
2018-Aug-07 18:00N 38°01' W 009°38'3 6.3
2018-Aug-07 17:30N 37°58' W 009°38'3 6.3
2018-Aug-07 17:00N 37°55' W 009°37'3 6.1
2018-Aug-07 16:30N 37°52' W 009°36'3 6.3
2018-Aug-07 16:00N 37°49' W 009°35'3 6.3
2018-Aug-07 15:30N 37°46' W 009°34'3 6.6
2018-Aug-07 15:00N 37°43' W 009°33'3 6.2
2018-Aug-07 14:30N 37°40' W 009°32'3 6.3
2018-Aug-07 14:00N 37°37' W 009°31'5 6.7
2018-Aug-07 13:16N 37°32' W 009°30'2 7.2
2018-Aug-07 13:00N 37°30' W 009°29'4 7.8
2018-Aug-07 12:30N 37°26' W 009°28'4 7.8
2018-Aug-07 11:57N 37°22' W 009°27'43 7.6
2018-Aug-07 06:19N 36°43' W 009°03'5 7.7
2018-Aug-07 05:37N 36°42' W 008°57'2 8.1
2018-Aug-07 05:24N 36°41' W 008°55'5 7.8
2018-Aug-07 04:47N 36°40' W 008°49'2 8.1
2018-Aug-07 04:30N 36°39' W 008°46'5 8.4
2018-Aug-07 03:51N 36°38' W 008°40'3 8.7
2018-Aug-07 03:29N 36°37' W 008°36'4 9.1
2018-Aug-07 02:59N 36°36' W 008°30'6 9.0
2018-Aug-07 02:17N 36°34' W 008°23'3 8.9
2018-Aug-07 01:57N 36°33' W 008°19'4 9.0
2018-Aug-07 01:28N 36°32' W 008°14'4 9.0
2018-Aug-07 00:59N 36°31' W 008°09'9 9.2
2018-Aug-07 00:01N 36°29' W 007°58'0 9.7
2018-Aug-07 00:00N 36°29' W 007°58'5 9.4
2018-Aug-06 23:30N 36°27' W 007°52'5 9.4
2018-Aug-06 23:00N 36°26' W 007°47'5 9.7
2018-Aug-06 22:30N 36°25' W 007°41'5 9.7
2018-Aug-06 22:00N 36°23' W 007°35'8 9.7
2018-Aug-06 21:11N 36°21' W 007°26'3 9.5
2018-Aug-06 20:53N 36°20' W 007°22'4 9.4
2018-Aug-06 20:30N 36°19' W 007°18'5 9.6
2018-Aug-06 19:59N 36°18' W 007°12'79 8.9
2018-Aug-06 11:07N 35°58' W 005°37'2 7.7
2018-Aug-06 10:55N 35°58' W 005°35'3 8.1
2018-Aug-06 10:30N 35°59' W 005°31'4 8.4
2018-Aug-06 09:59N 36°00' W 005°26'4 8.0
2018-Aug-06 09:26N 36°01' W 005°21'4 7.7
2018-Aug-06 08:58N 36°02' W 005°16'222 8.9
2018-Aug-05 08:09N 36°43' W 000°46'3 9.5
2018-Aug-05 07:51N 36°44' W 000°42'6 9.6
2018-Aug-05 07:15N 36°46' W 000°36'2 9.7
2018-Aug-05 07:00N 36°46' W 000°33'5 9.8
2018-Aug-05 06:30N 36°48' W 000°27'5 9.7
2018-Aug-05 05:59N 36°49' W 000°21'5 9.7
2018-Aug-05 05:27N 36°50' W 000°14'6 9.6
2018-Aug-05 04:52N 36°52' W 000°08'3 9.6
2018-Aug-05 04:30N 36°53' W 000°04'5 9.7
2018-Aug-05 04:00N 36°55' E 000°02'6 9.8
2018-Aug-05 03:26N 36°57' E 000°09'4 9.5
2018-Aug-05 03:00N 36°56' E 000°14'5 9.7
2018-Aug-05 02:30N 36°57' E 000°20'5 9.9
2018-Aug-05 02:00N 36°58' E 000°26'5 9.9
2018-Aug-05 01:27N 36°60' E 000°32'4 9.7
2018-Aug-05 00:59N 37°01' E 000°38'9 9.2
2018-Aug-05 00:03N 37°03' E 000°48'2 8.7
2018-Aug-04 23:51N 37°03' E 000°50'  
Track history (hours):
 
Tides and Currents Weather Stations Pressure Air Temp Water Temp Dewpoint Dewpoint Depression Visibility Wind Speed Wind Dir Waves Ship Positions

Navin Harrier

Last reported at 2018-Aug-14 23:30 UTC. Time now 2018-Aug-14 23:43 UTC.
Position N 57°45' E 010°49'.

Length 113 m; draft 7.4 m.

Type: Cargo ship. MMSI: 538007989.

Date/timePositionNaut miles runAvg speedWind from/ knotsBaromVisibWave heightAir tempDewpointWater temp
2018-Aug-14 23:30N 57°45' E 010°49'510.0
2018-Aug-14 23:00N 57°47' E 010°40'510.7
2018-Aug-14 22:30N 57°47' E 010°30'510.3
2018-Aug-14 21:59N 57°46' E 010°20'510.1
2018-Aug-14 21:28N 57°44' E 010°11'294 9.8
2018-Aug-13 15:21N 53°48' E 004°57'3 9.6
2018-Aug-13 15:00N 53°45' E 004°55'5 9.8
2018-Aug-13 14:30N 53°41' E 004°53'5 9.5
2018-Aug-13 14:00N 53°36' E 004°50'5 9.4
2018-Aug-13 13:30N 53°32' E 004°47'6 9.4
2018-Aug-13 12:50N 53°26' E 004°43'3 9.4
2018-Aug-13 12:30N 53°23' E 004°42'5 9.2
2018-Aug-13 12:00N 53°19' E 004°39'5 9.2
2018-Aug-13 11:28N 53°14' E 004°36'4 9.0
2018-Aug-13 10:59N 53°10' E 004°33'4 8.9
2018-Aug-13 10:30N 53°07' E 004°29'4 8.9
2018-Aug-13 10:00N 53°03' E 004°25'5 9.1
2018-Aug-13 09:30N 52°59' E 004°21'5 9.0
2018-Aug-13 09:00N 52°55' E 004°18'5 9.3
2018-Aug-13 08:30N 52°51' E 004°15'5 9.3
2018-Aug-13 07:58N 52°46' E 004°10'4 9.6
2018-Aug-13 07:30N 52°43' E 004°05'510.1
2018-Aug-13 06:59N 52°39' E 003°59'510.3
2018-Aug-13 06:29N 52°36' E 003°53'510.6
2018-Aug-13 06:00N 52°32' E 003°47'510.7
2018-Aug-13 05:30N 52°29' E 003°41'510.8
2018-Aug-13 05:00N 52°25' E 003°35'611.0
2018-Aug-13 04:30N 52°21' E 003°28'611.3
2018-Aug-13 04:00N 52°17' E 003°22'611.4
2018-Aug-13 03:30N 52°13' E 003°15'3311.4
2018-Aug-13 00:34N 51°47' E 002°40'110.2
2018-Aug-13 00:28N 51°47' E 002°39'510.2
2018-Aug-13 00:01N 51°43' E 002°34'5 9.7
2018-Aug-12 23:30N 51°39' E 002°29'5 9.1
2018-Aug-12 22:59N 51°36' E 002°24'4 8.6
2018-Aug-12 22:30N 51°32' E 002°20'4 7.9
2018-Aug-12 22:00N 51°29' E 002°16'4 7.9
2018-Aug-12 21:30N 51°26' E 002°13'4 7.7
2018-Aug-12 21:00N 51°22' E 002°10'4 7.5
2018-Aug-12 20:30N 51°19' E 002°08'4 7.7
2018-Aug-12 20:00N 51°15' E 002°05'4 7.3
2018-Aug-12 19:29N 51°13' E 002°01'4 8.1
2018-Aug-12 19:00N 51°10' E 001°56'4 8.2
2018-Aug-12 18:28N 51°08' E 001°50'4 8.2
2018-Aug-12 18:00N 51°05' E 001°46'4 8.7
2018-Aug-12 17:30N 51°02' E 001°41'5 9.2
2018-Aug-12 17:00N 50°59' E 001°36'5 9.7
2018-Aug-12 16:30N 50°55' E 001°31'610.4
2018-Aug-12 15:54N 50°50' E 001°26'410.5
2018-Aug-12 15:30N 50°46' E 001°24'10 9.9
2018-Aug-12 14:30N 50°37' E 001°15'4210.2
2018-Aug-12 10:24N 50°20' E 000°15'512.0
2018-Aug-12 10:00N 50°18' E 000°08'612.3
2018-Aug-12 09:30N 50°16' W 000°01'612.7
2018-Aug-12 09:00N 50°14' W 000°10'712.7
2018-Aug-12 08:30N 50°11' W 000°19'612.6
2018-Aug-12 08:00N 50°08' W 000°28'612.4
2018-Aug-12 07:30N 50°05' W 000°36'612.1
2018-Aug-12 07:00N 50°03' W 000°45'611.4
2018-Aug-12 06:30N 50°01' W 000°53'610.9
2018-Aug-12 06:00N 49°58' W 001°01'510.1
2018-Aug-12 05:30N 49°56' W 001°08'5 9.2
2018-Aug-12 04:55N 49°54' W 001°16'4 8.4
2018-Aug-12 04:30N 49°53' W 001°21'4 7.3
2018-Aug-12 03:57N 49°51' W 001°26'3 6.5
2018-Aug-12 03:30N 49°50' W 001°31'3 6.5
2018-Aug-12 03:00N 49°47' W 001°33'3 6.3
2018-Aug-12 02:30N 49°45' W 001°36'3 5.1
2018-Aug-12 01:57N 49°44' W 001°41'11 1.6
2018-Aug-11 19:16N 49°49' W 001°55'130 9.0
2018-Aug-11 04:44N 48°59' W 004°60'311.6
2018-Aug-11 04:30N 48°58' W 005°04'611.8
2018-Aug-11 04:00N 48°55' W 005°12'611.6
2018-Aug-11 03:30N 48°52' W 005°19'911.5
2018-Aug-11 02:44N 48°48' W 005°31'311.6
2018-Aug-11 02:27N 48°46' W 005°35'  
2018-Aug-08 07:31N 39°47' W 009°42'0 9.0
2018-Aug-08 07:30N 39°47' W 009°43'5 9.0
2018-Aug-08 06:54N 39°42' W 009°45'5 9.1
2018-Aug-08 06:19N 39°37' W 009°48'3 8.8
2018-Aug-08 05:57N 39°34' W 009°49'5 8.6
2018-Aug-08 05:25N 39°29' W 009°50'4 8.7
2018-Aug-08 04:55N 39°25' W 009°50'4 8.4
2018-Aug-08 04:29N 39°21' W 009°50'4 8.1
2018-Aug-08 04:00N 39°17' W 009°50'4 8.2
2018-Aug-08 03:30N 39°13' W 009°50'4 8.1
2018-Aug-08 03:00N 39°09' W 009°50'4 8.3
2018-Aug-08 02:30N 39°05' W 009°50'4 8.2
2018-Aug-08 02:00N 39°01' W 009°51'4 8.1
2018-Aug-08 01:30N 38°57' W 009°51'4 8.0
2018-Aug-08 01:00N 38°53' W 009°51'4 8.0
2018-Aug-08 00:30N 38°49' W 009°51'4 7.7
2018-Aug-08 00:00N 38°45' W 009°51'4 7.8
2018-Aug-07 23:30N 38°41' W 009°50'4 8.0
2018-Aug-07 23:00N 38°37' W 009°49'4 8.0
2018-Aug-07 22:30N 38°33' W 009°48'4 7.9
2018-Aug-07 22:00N 38°29' W 009°46'4 7.8
2018-Aug-07 21:30N 38°26' W 009°45'4 7.5
2018-Aug-07 20:57N 38°22' W 009°44'4 7.7
2018-Aug-07 20:26N 38°18' W 009°43'3 7.5
2018-Aug-07 20:00N 38°15' W 009°42'4 7.3
2018-Aug-07 19:30N 38°11' W 009°41'3 6.9
2018-Aug-07 19:00N 38°08' W 009°40'3 6.6
2018-Aug-07 18:30N 38°05' W 009°39'3 6.5
2018-Aug-07 18:00N 38°01' W 009°38'3 6.3
2018-Aug-07 17:30N 37°58' W 009°38'3 6.3
2018-Aug-07 17:00N 37°55' W 009°37'3 6.1
2018-Aug-07 16:30N 37°52' W 009°36'3 6.3
2018-Aug-07 16:00N 37°49' W 009°35'3 6.3
2018-Aug-07 15:30N 37°46' W 009°34'3 6.6
2018-Aug-07 15:00N 37°43' W 009°33'3 6.2
2018-Aug-07 14:30N 37°40' W 009°32'3 6.3
2018-Aug-07 14:00N 37°37' W 009°31'5 6.7
2018-Aug-07 13:16N 37°32' W 009°30'2 7.2
2018-Aug-07 13:00N 37°30' W 009°29'4 7.8
2018-Aug-07 12:30N 37°26' W 009°28'4 7.8
2018-Aug-07 11:57N 37°22' W 009°27'43 7.6
2018-Aug-07 06:19N 36°43' W 009°03'5 7.7
2018-Aug-07 05:37N 36°42' W 008°57'2 8.1
2018-Aug-07 05:24N 36°41' W 008°55'5 7.8
2018-Aug-07 04:47N 36°40' W 008°49'2 8.1
2018-Aug-07 04:30N 36°39' W 008°46'5 8.4
2018-Aug-07 03:51N 36°38' W 008°40'3 8.7
2018-Aug-07 03:29N 36°37' W 008°36'4 9.1
2018-Aug-07 02:59N 36°36' W 008°30'6 9.0
2018-Aug-07 02:17N 36°34' W 008°23'3 8.9
2018-Aug-07 01:57N 36°33' W 008°19'4 9.0
2018-Aug-07 01:28N 36°32' W 008°14'4 9.0
2018-Aug-07 00:59N 36°31' W 008°09'9 9.2
2018-Aug-07 00:01N 36°29' W 007°58'0 9.7
2018-Aug-07 00:00N 36°29' W 007°58'5 9.4
2018-Aug-06 23:30N 36°27' W 007°52'5 9.4
2018-Aug-06 23:00N 36°26' W 007°47'5 9.7
2018-Aug-06 22:30N 36°25' W 007°41'5 9.7
2018-Aug-06 22:00N 36°23' W 007°35'8 9.7
2018-Aug-06 21:11N 36°21' W 007°26'3 9.5
2018-Aug-06 20:53N 36°20' W 007°22'4 9.4
2018-Aug-06 20:30N 36°19' W 007°18'5 9.6
2018-Aug-06 19:59N 36°18' W 007°12'79 8.9
2018-Aug-06 11:07N 35°58' W 005°37'2 7.7
2018-Aug-06 10:55N 35°58' W 005°35'3 8.1
2018-Aug-06 10:30N 35°59' W 005°31'4 8.4
2018-Aug-06 09:59N 36°00' W 005°26'4 8.0
2018-Aug-06 09:26N 36°01' W 005°21'4 7.7
2018-Aug-06 08:58N 36°02' W 005°16'222 8.9
2018-Aug-05 08:09N 36°43' W 000°46'3 9.5
2018-Aug-05 07:51N 36°44' W 000°42'6 9.6
2018-Aug-05 07:15N 36°46' W 000°36'2 9.7
2018-Aug-05 07:00N 36°46' W 000°33'5 9.8
2018-Aug-05 06:30N 36°48' W 000°27'5 9.7
2018-Aug-05 05:59N 36°49' W 000°21'5 9.7
2018-Aug-05 05:27N 36°50' W 000°14'6 9.6
2018-Aug-05 04:52N 36°52' W 000°08'3 9.6
2018-Aug-05 04:30N 36°53' W 000°04'5 9.7
2018-Aug-05 04:00N 36°55' E 000°02'6 9.8
2018-Aug-05 03:26N 36°57' E 000°09'4 9.5
2018-Aug-05 03:00N 36°56' E 000°14'5 9.7
2018-Aug-05 02:30N 36°57' E 000°20'5 9.9
2018-Aug-05 02:00N 36°58' E 000°26'5 9.9
2018-Aug-05 01:27N 36°60' E 000°32'4 9.7
2018-Aug-05 00:59N 37°01' E 000°38'9 9.2
2018-Aug-05 00:03N 37°03' E 000°48'2 8.7
2018-Aug-04 23:51N 37°03' E 000°50'  

Dump ship's entire track history